createdAt,value
2016-05-23T00:00:38.856Z,0
2016-05-23T00:01:38.890Z,0
2016-05-23T00:02:38.753Z,0
2016-05-23T00:03:38.786Z,0
2016-05-23T00:04:38.648Z,0
2016-05-23T00:05:38.667Z,0
2016-05-23T00:06:38.841Z,0
2016-05-23T00:07:38.891Z,0
2016-05-23T00:08:38.894Z,0
2016-05-23T00:09:39.084Z,0
2016-05-23T00:10:38.946Z,0
2016-05-23T00:11:39.136Z,0
2016-05-23T00:12:39.155Z,0
2016-05-23T00:13:39.188Z,0
2016-05-23T00:14:39.206Z,0
2016-05-23T00:15:39.240Z,0
2016-05-23T00:16:39.103Z,0
2016-05-23T00:17:39.121Z,0
2016-05-23T00:18:39.310Z,0
2016-05-23T00:19:39.330Z,0
2016-05-23T00:20:39.363Z,0
2016-05-23T00:21:39.382Z,0
2016-05-23T00:22:39.259Z,0
2016-05-23T00:23:39.278Z,0
2016-05-23T00:24:39.452Z,0
2016-05-23T00:25:39.470Z,0
2016-05-23T00:26:39.505Z,0
2016-05-23T00:27:39.522Z,0
2016-05-23T00:28:39.557Z,0
2016-05-23T00:29:40.106Z,0
2016-05-23T00:30:39.609Z,0
2016-05-23T00:31:39.628Z,0
2016-05-23T00:32:39.536Z,0
2016-05-23T00:33:39.539Z,0
2016-05-23T00:34:39.698Z,0
2016-05-23T00:35:39.575Z,0
2016-05-23T00:36:39.594Z,0
2016-05-23T00:37:39.784Z,0
2016-05-23T00:38:39.803Z,0
2016-05-23T00:39:39.836Z,0
2016-05-23T00:40:39.855Z,0
2016-05-23T00:41:39.888Z,0
2016-05-23T00:42:39.907Z,0
2016-05-23T00:43:39.785Z,0
2016-05-23T00:44:39.506Z,0
2016-05-23T00:45:39.993Z,0
2016-05-23T00:46:40.011Z,0
2016-05-23T00:47:40.030Z,0
2016-05-23T00:48:39.907Z,0
2016-05-23T00:49:40.082Z,0
2016-05-23T00:50:40.116Z,0
2016-05-23T00:51:40.166Z,0
2016-05-23T00:52:40.152Z,0
2016-05-23T00:53:40.186Z,0
2016-05-23T00:54:40.221Z,0
2016-05-23T00:55:40.238Z,0
2016-05-23T00:56:40.256Z,0
2016-05-23T00:57:40.307Z,0
2016-05-23T00:58:40.309Z,0
2016-05-23T00:59:40.640Z,0
2016-05-23T01:00:40.361Z,0
2016-05-23T01:01:40.380Z,0
2016-05-23T01:02:40.398Z,0
2016-05-23T01:03:40.275Z,0
2016-05-23T01:04:40.451Z,0
2016-05-23T01:05:40.484Z,0
2016-05-23T01:06:40.518Z,0
2016-05-23T01:07:40.380Z,0
2016-05-23T01:08:40.555Z,0
2016-05-23T01:09:40.573Z,0
2016-05-23T01:10:40.591Z,0
2016-05-23T01:11:40.641Z,0
2016-05-23T01:12:40.503Z,0
2016-05-23T01:13:40.694Z,0
2016-05-23T01:14:40.805Z,0
2016-05-23T01:15:40.730Z,0
2016-05-23T01:16:40.764Z,0
2016-05-23T01:17:40.797Z,0
2016-05-23T01:18:40.816Z,0
2016-05-23T01:19:40.850Z,0
2016-05-23T01:20:40.853Z,0
2016-05-23T01:21:40.902Z,0
2016-05-23T01:22:40.921Z,0
2016-05-23T01:23:40.938Z,0
2016-05-23T01:24:40.801Z,0
2016-05-23T01:25:40.991Z,0
2016-05-23T01:26:41.009Z,0
2016-05-23T01:27:41.044Z,0
2016-05-23T01:28:41.046Z,0
2016-05-23T01:29:41.579Z,0
2016-05-23T01:30:41.114Z,0
2016-05-23T01:31:41.132Z,0
2016-05-23T01:32:41.151Z,0
2016-05-23T01:33:41.184Z,0
2016-05-23T01:34:41.203Z,0
2016-05-23T01:35:41.221Z,0
2016-05-23T01:36:41.255Z,0
2016-05-23T01:37:41.273Z,0
2016-05-23T01:38:41.307Z,0
2016-05-23T01:39:41.326Z,0
2016-05-23T01:40:41.359Z,0
2016-05-23T01:41:41.378Z,0
2016-05-23T01:42:41.397Z,0
2016-05-23T01:43:41.430Z,0
2016-05-23T01:44:41.620Z,0
2016-05-23T01:45:41.483Z,0
2016-05-23T01:46:41.360Z,0
2016-05-23T01:47:41.535Z,0
2016-05-23T01:48:41.553Z,0
2016-05-23T01:49:41.571Z,0
2016-05-23T01:50:41.605Z,0
2016-05-23T01:51:41.639Z,0
2016-05-23T01:52:41.657Z,0
2016-05-23T01:53:41.676Z,0
2016-05-23T01:54:41.554Z,0
2016-05-23T01:55:41.572Z,0
2016-05-23T01:56:41.590Z,0
2016-05-23T01:57:41.765Z,0
2016-05-23T01:58:41.658Z,0
2016-05-23T01:59:42.051Z,0
2016-05-23T02:00:41.695Z,0
2016-05-23T02:01:41.884Z,0
2016-05-23T02:02:41.904Z,0
2016-05-23T02:03:41.921Z,0
2016-05-23T02:04:41.955Z,0
2016-05-23T02:05:41.974Z,0
2016-05-23T02:06:41.992Z,0
2016-05-23T02:07:41.869Z,0
2016-05-23T02:08:42.060Z,0
2016-05-23T02:09:42.095Z,0
2016-05-23T02:10:41.800Z,0
2016-05-23T02:11:41.975Z,0
2016-05-23T02:12:42.149Z,0
2016-05-23T02:13:42.166Z,0
2016-05-23T02:14:42.201Z,0
2016-05-23T02:15:42.063Z,0
2016-05-23T02:16:42.113Z,0
2016-05-23T02:17:42.287Z,0
2016-05-23T02:18:42.290Z,0
2016-05-23T02:19:42.168Z,0
2016-05-23T02:20:42.342Z,0
2016-05-23T02:21:42.220Z,0
2016-05-23T02:22:42.394Z,0
2016-05-23T02:23:42.429Z,0
2016-05-23T02:24:42.510Z,0
2016-05-23T02:25:42.465Z,0
2016-05-23T02:26:42.327Z,0
2016-05-23T02:27:42.533Z,0
2016-05-23T02:28:42.551Z,0
2016-05-23T02:29:42.335Z,0
2016-05-23T02:30:42.604Z,0
2016-05-23T02:31:42.621Z,0
2016-05-23T02:32:42.641Z,0
2016-05-23T02:33:42.518Z,0
2016-05-23T02:34:42.693Z,0
2016-05-23T02:35:42.554Z,0
2016-05-23T02:36:42.744Z,0
2016-05-23T02:37:42.779Z,0
2016-05-23T02:38:42.797Z,0
2016-05-23T02:39:42.831Z,0
2016-05-23T02:40:42.692Z,0
2016-05-23T02:41:42.868Z,0
2016-05-23T02:42:42.886Z,0
2016-05-23T02:43:42.764Z,0
2016-05-23T02:44:43.531Z,0
2016-05-23T02:45:42.972Z,0
2016-05-23T02:46:42.991Z,0
2016-05-23T02:47:43.008Z,0
2016-05-23T02:48:43.042Z,0
2016-05-23T02:49:43.077Z,0
2016-05-23T02:50:43.111Z,0
2016-05-23T02:51:43.113Z,0
2016-05-23T02:52:42.991Z,0
2016-05-23T02:53:43.165Z,0
2016-05-23T02:54:43.183Z,0
2016-05-23T02:55:43.202Z,0
2016-05-23T02:56:42.924Z,0
2016-05-23T02:57:43.271Z,0
2016-05-23T02:58:43.288Z,0
2016-05-23T02:59:43.728Z,0
2016-05-23T03:00:43.340Z,0
2016-05-23T03:01:43.202Z,0
2016-05-23T03:02:43.393Z,0
2016-05-23T03:03:43.254Z,0
2016-05-23T03:04:43.273Z,0
2016-05-23T03:05:43.306Z,0
2016-05-23T03:06:43.481Z,0
2016-05-23T03:07:43.515Z,0
2016-05-23T03:08:43.550Z,0
2016-05-23T03:09:43.552Z,0
2016-05-23T03:10:43.586Z,0
2016-05-23T03:11:43.448Z,0
2016-05-23T03:12:43.639Z,0
2016-05-23T03:13:43.656Z,0
2016-05-23T03:14:43.769Z,0
2016-05-23T03:15:43.553Z,0
2016-05-23T03:16:43.587Z,0
2016-05-23T03:17:43.761Z,0
2016-05-23T03:18:43.779Z,0
2016-05-23T03:19:43.798Z,0
2016-05-23T03:20:43.675Z,0
2016-05-23T03:21:43.850Z,0
2016-05-23T03:22:43.728Z,0
2016-05-23T03:23:43.590Z,0
2016-05-23T03:24:43.921Z,0
2016-05-23T03:25:43.799Z,0
2016-05-23T03:26:43.974Z,0
2016-05-23T03:27:44.007Z,0
2016-05-23T03:28:44.009Z,0
2016-05-23T03:29:44.168Z,0
2016-05-23T03:30:44.077Z,0
2016-05-23T03:31:44.096Z,0
2016-05-23T03:32:44.129Z,4
2016-05-23T03:33:44.148Z,4
2016-05-23T03:34:44.009Z,4
2016-05-23T03:35:44.044Z,4
2016-05-23T03:36:44.234Z,4
2016-05-23T03:37:44.237Z,4
2016-05-23T03:38:44.286Z,4
2016-05-23T03:39:44.133Z,4
2016-05-23T03:40:44.307Z,4
2016-05-23T03:41:44.185Z,8
2016-05-23T03:42:44.375Z,8
2016-05-23T03:43:44.237Z,4
2016-05-23T03:44:44.631Z,8
2016-05-23T03:45:44.445Z,12
2016-05-23T03:46:44.308Z,8
2016-05-23T03:47:44.185Z,12
2016-05-23T03:48:44.501Z,8
2016-05-23T03:49:44.535Z,8
2016-05-23T03:50:44.569Z,16
2016-05-23T03:51:44.587Z,12
2016-05-23T03:52:44.449Z,16
2016-05-23T03:53:44.483Z,16
2016-05-23T03:54:44.502Z,12
2016-05-23T03:55:44.692Z,16
2016-05-23T03:56:44.710Z,16
2016-05-23T03:57:44.728Z,16
2016-05-23T03:58:44.762Z,16
2016-05-23T03:59:45.015Z,16
2016-05-23T04:00:44.658Z,20
2016-05-23T04:01:44.848Z,20
2016-05-23T04:02:44.851Z,24
2016-05-23T04:03:44.729Z,24
2016-05-23T04:04:44.904Z,20
2016-05-23T04:05:44.937Z,24
2016-05-23T04:06:44.956Z,24
2016-05-23T04:07:44.974Z,32
2016-05-23T04:08:44.993Z,32
2016-05-23T04:09:45.026Z,40
2016-05-23T04:10:44.888Z,40
2016-05-23T04:11:45.078Z,40
2016-05-23T04:12:45.097Z,44
2016-05-23T04:13:45.131Z,40
2016-05-23T04:14:45.399Z,48
2016-05-23T04:15:45.198Z,44
2016-05-23T04:16:45.201Z,56
2016-05-23T04:17:45.220Z,52
2016-05-23T04:18:45.238Z,48
2016-05-23T04:19:45.272Z,52
2016-05-23T04:20:45.150Z,56
2016-05-23T04:21:45.324Z,52
2016-05-23T04:22:45.342Z,52
2016-05-23T04:23:45.361Z,52
2016-05-23T04:24:45.394Z,48
2016-05-23T04:25:45.413Z,52
2016-05-23T04:26:45.306Z,48
2016-05-23T04:27:45.466Z,44
2016-05-23T04:28:45.483Z,52
2016-05-23T04:29:45.846Z,60
2016-05-23T04:30:45.551Z,56
2016-05-23T04:31:45.569Z,64
2016-05-23T04:32:45.587Z,68
2016-05-23T04:33:45.621Z,84
2016-05-23T04:34:45.624Z,80
2016-05-23T04:35:45.502Z,76
2016-05-23T04:36:45.677Z,80
2016-05-23T04:37:45.710Z,76
2016-05-23T04:38:45.729Z,88
2016-05-23T04:39:45.748Z,88
2016-05-23T04:40:45.625Z,88
2016-05-23T04:41:45.800Z,84
2016-05-23T04:42:45.678Z,80
2016-05-23T04:43:45.852Z,92
2016-05-23T04:44:46.042Z,100
2016-05-23T04:45:45.904Z,100
2016-05-23T04:46:45.767Z,108
2016-05-23T04:47:45.956Z,112
2016-05-23T04:48:45.819Z,128
2016-05-23T04:49:45.993Z,128
2016-05-23T04:50:46.028Z,132
2016-05-23T04:51:46.062Z,136
2016-05-23T04:52:46.079Z,136
2016-05-23T04:53:46.098Z,144
2016-05-23T04:54:46.116Z,156
2016-05-23T04:55:46.150Z,136
2016-05-23T04:56:46.169Z,148
2016-05-23T04:57:46.234Z,184
2016-05-23T04:58:46.064Z,176
2016-05-23T04:59:46.582Z,176
2016-05-23T05:00:46.273Z,152
2016-05-23T05:01:46.150Z,140
2016-05-23T05:02:46.310Z,136
2016-05-23T05:03:46.171Z,148
2016-05-23T05:04:46.377Z,200
2016-05-23T05:05:46.396Z,184
2016-05-23T05:06:46.414Z,172
2016-05-23T05:07:46.135Z,164
2016-05-23T05:08:46.466Z,204
2016-05-23T05:09:46.501Z,208
2016-05-23T05:10:46.518Z,192
2016-05-23T05:11:46.537Z,188
2016-05-23T05:12:46.571Z,244
2016-05-23T05:13:46.604Z,212
2016-05-23T05:14:46.982Z,160
2016-05-23T05:15:46.625Z,160
2016-05-23T05:16:46.660Z,224
2016-05-23T05:17:46.693Z,232
2016-05-23T05:18:46.712Z,204
2016-05-23T05:19:46.730Z,196
2016-05-23T05:20:46.749Z,244
2016-05-23T05:21:46.783Z,256
2016-05-23T05:22:46.800Z,220
2016-05-23T05:23:46.835Z,244
2016-05-23T05:24:46.853Z,220
2016-05-23T05:25:46.871Z,264
2016-05-23T05:26:46.906Z,248
2016-05-23T05:27:46.924Z,200
2016-05-23T05:28:46.958Z,156
2016-05-23T05:29:46.836Z,180
2016-05-23T05:30:47.010Z,172
2016-05-23T05:31:47.044Z,196
2016-05-23T05:32:47.062Z,192
2016-05-23T05:33:46.924Z,224
2016-05-23T05:34:47.114Z,244
2016-05-23T05:35:46.977Z,224
2016-05-23T05:36:48.088Z,276
2016-05-23T05:37:47.185Z,220
2016-05-23T05:38:47.204Z,304
2016-05-23T05:39:47.222Z,332
2016-05-23T05:40:47.099Z,384
2016-05-23T05:41:47.290Z,364
2016-05-23T05:42:47.324Z,412
2016-05-23T05:43:47.185Z,400
2016-05-23T05:44:47.501Z,412
2016-05-23T05:45:47.237Z,360
2016-05-23T05:46:47.412Z,380
2016-05-23T05:47:47.431Z,388
2016-05-23T05:48:47.464Z,396
2016-05-23T05:49:47.483Z,416
2016-05-23T05:50:47.501Z,396
2016-05-23T05:51:47.535Z,380
2016-05-23T05:52:47.412Z,360
2016-05-23T05:53:47.587Z,380
2016-05-23T05:54:47.465Z,344
2016-05-23T05:55:47.639Z,336
2016-05-23T05:56:47.502Z,392
2016-05-23T05:57:47.692Z,420
2016-05-23T05:58:47.398Z,404
2016-05-23T05:59:47.760Z,392
2016-05-23T06:00:47.778Z,392
2016-05-23T06:01:47.672Z,464
2016-05-23T06:02:47.831Z,472
2016-05-23T06:03:47.849Z,392
2016-05-23T06:04:47.711Z,464
2016-05-23T06:05:47.933Z,412
2016-05-23T06:06:47.935Z,452
2016-05-23T06:07:47.952Z,476
2016-05-23T06:08:47.815Z,432
2016-05-23T06:09:48.005Z,472
2016-05-23T06:10:48.024Z,516
2016-05-23T06:11:48.042Z,516
2016-05-23T06:12:48.076Z,496
2016-05-23T06:13:48.109Z,500
2016-05-23T06:14:48.222Z,528
2016-05-23T06:15:48.006Z,540
2016-05-23T06:16:48.196Z,492
2016-05-23T06:17:48.277Z,540
2016-05-23T06:18:48.077Z,512
2016-05-23T06:19:48.345Z,480
2016-05-23T06:20:48.301Z,484
2016-05-23T06:21:48.320Z,540
2016-05-23T06:22:48.337Z,580
2016-05-23T06:23:48.355Z,556
2016-05-23T06:24:48.389Z,564
2016-05-23T06:25:48.423Z,512
2016-05-23T06:26:48.286Z,536
2016-05-23T06:27:48.335Z,520
2016-05-23T06:28:48.494Z,552
2016-05-23T06:29:49.044Z,588
2016-05-23T06:30:48.547Z,596
2016-05-23T06:31:48.564Z,560
2016-05-23T06:32:48.599Z,560
2016-05-23T06:33:48.617Z,624
2016-05-23T06:34:48.636Z,592
2016-05-23T06:35:49.247Z,560
2016-05-23T06:36:48.703Z,580
2016-05-23T06:37:48.722Z,596
2016-05-23T06:38:48.772Z,556
2016-05-23T06:39:48.617Z,524
2016-05-23T06:40:48.917Z,516
2016-05-23T06:41:48.841Z,556
2016-05-23T06:42:48.844Z,536
2016-05-23T06:43:48.893Z,572
2016-05-23T06:44:49.021Z,588
2016-05-23T06:45:48.759Z,616
2016-05-23T06:46:48.949Z,672
2016-05-23T06:47:48.827Z,712
2016-05-23T06:48:48.886Z,712
2016-05-23T06:49:49.086Z,736
2016-05-23T06:50:49.958Z,768
2016-05-23T06:51:49.205Z,772
2016-05-23T06:52:49.092Z,748
2016-05-23T06:53:49.275Z,796
2016-05-23T06:54:49.318Z,800
2016-05-23T06:55:50.502Z,796
2016-05-23T06:56:49.374Z,812
2016-05-23T06:57:49.401Z,808
2016-05-23T06:58:49.438Z,828
2016-05-23T06:59:49.912Z,848
2016-05-23T07:00:51.669Z,820
2016-05-23T07:01:49.533Z,828
2016-05-23T07:02:49.555Z,808
2016-05-23T07:03:49.434Z,856
2016-05-23T07:04:49.610Z,876
2016-05-23T07:05:49.675Z,900
2016-05-23T07:06:49.679Z,940
2016-05-23T07:07:49.683Z,896
2016-05-23T07:08:49.718Z,924
2016-05-23T07:09:49.752Z,984
2016-05-23T07:10:49.772Z,1024
2016-05-23T07:11:49.633Z,1068
2016-05-23T07:12:50.292Z,1084
2016-05-23T07:13:50.109Z,1108
2016-05-23T07:14:50.862Z,1096
2016-05-23T07:15:49.895Z,1084
2016-05-23T07:16:49.930Z,1064
2016-05-23T07:17:49.949Z,1072
2016-05-23T07:18:49.826Z,1052
2016-05-23T07:19:50.001Z,1064
2016-05-23T07:20:50.035Z,964
2016-05-23T07:21:49.897Z,1084
2016-05-23T07:22:50.072Z,1024
2016-05-23T07:23:50.105Z,1060
2016-05-23T07:24:50.124Z,1012
2016-05-23T07:25:50.157Z,1044
2016-05-23T07:26:50.192Z,1028
2016-05-23T07:27:50.209Z,1004
2016-05-23T07:28:50.243Z,928
2016-05-23T07:29:50.012Z,956
2016-05-23T07:30:53.359Z,960
2016-05-23T07:31:50.845Z,936
2016-05-23T07:32:50.348Z,976
2016-05-23T07:33:50.366Z,960
2016-05-23T07:34:50.401Z,1000
2016-05-23T07:35:50.262Z,1028
2016-05-23T07:36:50.437Z,1040
2016-05-23T07:37:50.472Z,1004
2016-05-23T07:38:50.350Z,1016
2016-05-23T07:39:50.523Z,972
2016-05-23T07:40:50.230Z,976
2016-05-23T07:41:50.575Z,1068
2016-05-23T07:42:50.594Z,1144
2016-05-23T07:43:50.627Z,1156
2016-05-23T07:44:51.037Z,1188
2016-05-23T07:45:50.524Z,1192
2016-05-23T07:46:50.588Z,1144
2016-05-23T07:47:50.560Z,1144
2016-05-23T07:48:50.751Z,1152
2016-05-23T07:49:50.799Z,1248
2016-05-23T07:50:51.022Z,1080
2016-05-23T07:51:53.696Z,1184
2016-05-23T07:52:51.262Z,1208
2016-05-23T07:53:53.717Z,1112
2016-05-23T07:54:53.923Z,1376
2016-05-23T07:55:50.941Z,1360
2016-05-23T07:56:50.960Z,1392
2016-05-23T07:57:50.681Z,1428
2016-05-23T07:58:51.012Z,1632
2016-05-23T07:59:50.920Z,1560
2016-05-23T08:00:50.909Z,1332
2016-05-23T08:02:51.117Z,1484
2016-05-23T08:03:51.369Z,1552
2016-05-23T08:05:51.406Z,1504
2016-05-23T08:06:51.534Z,1216
2016-05-23T08:07:51.552Z,1068
2016-05-23T08:08:51.664Z,1300
2016-05-23T08:10:51.389Z,1364
2016-05-23T08:11:54.063Z,1372
2016-05-23T08:12:51.066Z,1460
2016-05-23T08:13:51.240Z,1196
2016-05-23T08:14:51.696Z,1544
2016-05-23T08:15:51.307Z,1784
2016-05-23T08:16:51.466Z,1860
2016-05-23T08:17:51.485Z,1804
2016-05-23T08:18:51.363Z,1680
2016-05-23T08:19:51.538Z,1496
2016-05-23T08:20:51.274Z,1540
2016-05-23T08:21:52.355Z,1588
2016-05-23T08:22:51.623Z,1488
2016-05-23T08:23:51.673Z,1288
2016-05-23T08:24:51.362Z,1372
2016-05-23T08:25:51.554Z,1356
2016-05-23T08:26:51.728Z,1416
2016-05-23T08:27:51.590Z,1380
2016-05-23T08:28:51.779Z,1224
2016-05-23T08:29:52.595Z,1120
2016-05-23T08:30:51.832Z,1112
2016-05-23T08:31:51.726Z,1228
2016-05-23T08:32:51.884Z,1220
2016-05-23T08:33:51.747Z,1544
2016-05-23T08:34:51.937Z,1416
2016-05-23T08:35:51.799Z,1568
2016-05-23T08:36:51.989Z,1376
2016-05-23T08:37:51.851Z,1416
2016-05-23T08:38:52.042Z,1224
2016-05-23T08:39:52.059Z,1248
2016-05-23T08:40:51.937Z,1264
2016-05-23T08:41:52.111Z,1240
2016-05-23T08:42:52.130Z,1436
2016-05-23T08:43:52.180Z,1452
2016-05-23T08:44:52.308Z,1692
2016-05-23T08:45:52.217Z,1424
2016-05-23T08:46:52.094Z,1416
2016-05-23T08:47:52.113Z,1460
2016-05-23T08:48:52.303Z,1428
2016-05-23T08:49:52.321Z,1432
2016-05-23T08:50:52.354Z,1488
2016-05-23T08:51:52.373Z,1512
2016-05-23T08:52:52.079Z,1652
2016-05-23T08:53:52.269Z,1628
2016-05-23T08:54:52.147Z,1608
2016-05-23T08:55:52.478Z,1596
2016-05-23T08:56:52.512Z,1744
2016-05-23T08:57:52.530Z,1760
2016-05-23T08:58:52.407Z,2000
2016-05-23T08:59:52.707Z,2264
2016-05-23T09:00:52.601Z,2040
2016-05-23T09:01:52.634Z,1660
2016-05-23T09:02:52.496Z,1928
2016-05-23T09:03:52.531Z,2140
2016-05-23T09:04:52.721Z,2012
2016-05-23T09:05:52.739Z,1928
2016-05-23T09:06:52.601Z,1772
2016-05-23T09:07:52.776Z,2096
2016-05-23T09:08:52.809Z,1796
2016-05-23T09:09:52.687Z,1844
2016-05-23T09:10:52.846Z,1896
2016-05-23T09:11:52.895Z,1948
2016-05-23T09:12:52.914Z,1852
2016-05-23T09:13:52.776Z,1896
2016-05-23T09:14:53.186Z,2004
2016-05-23T09:15:53.000Z,2336
2016-05-23T09:16:53.050Z,2208
2016-05-23T09:17:55.475Z,2128
2016-05-23T09:18:53.072Z,2360
2016-05-23T09:19:52.980Z,2300
2016-05-23T09:20:52.967Z,2188
2016-05-23T09:21:53.001Z,2120
2016-05-23T09:22:55.910Z,2264
2016-05-23T09:23:53.193Z,2124
2016-05-23T09:24:53.290Z,2212
2016-05-23T09:25:53.262Z,2372
2016-05-23T09:26:53.280Z,2200
2016-05-23T09:27:53.298Z,1932
2016-05-23T09:28:53.332Z,2196
2016-05-23T09:29:53.804Z,2564
2016-05-23T09:30:53.384Z,2636
2016-05-23T09:31:53.762Z,2060
2016-05-23T09:32:53.593Z,2624
2016-05-23T09:33:54.236Z,2576
2016-05-23T09:34:53.457Z,2432
2016-05-23T09:35:53.820Z,2772
2016-05-23T09:36:53.509Z,3036
2016-05-23T09:37:53.419Z,3004
2016-05-23T09:38:53.437Z,3004
2016-05-23T09:39:53.658Z,2792
2016-05-23T09:40:53.505Z,2504
2016-05-23T09:41:54.367Z,2304
2016-05-23T09:42:53.698Z,2396
2016-05-23T09:43:53.717Z,2724
2016-05-23T09:44:53.906Z,2312
2016-05-23T09:45:53.925Z,2064
2016-05-23T09:46:55.286Z,2156
2016-05-23T09:47:53.681Z,2032
2016-05-23T09:48:53.870Z,2572
2016-05-23T09:49:53.872Z,3308
2016-05-23T09:50:53.922Z,4000
2016-05-23T09:51:55.394Z,3124
2016-05-23T09:52:53.960Z,3032
2016-05-23T09:53:53.993Z,3452
2016-05-23T09:54:54.011Z,3576
2016-05-23T09:55:54.030Z,3432
2016-05-23T09:56:54.095Z,3200
2016-05-23T09:57:54.082Z,2928
2016-05-23T09:58:53.960Z,2868
2016-05-23T09:59:54.260Z,2956
2016-05-23T10:00:54.168Z,2668
2016-05-23T10:01:56.577Z,3112
2016-05-23T10:02:53.908Z,2860
2016-05-23T10:03:54.255Z,2772
2016-05-23T10:04:54.273Z,3064
2016-05-23T10:05:54.135Z,3156
2016-05-23T10:06:54.918Z,3128
2016-05-23T10:07:54.343Z,3048
2016-05-23T10:08:54.392Z,2872
2016-05-23T10:09:54.426Z,2784
2016-05-23T10:10:54.445Z,2876
2016-05-23T10:11:54.448Z,2640
2016-05-23T10:12:54.513Z,2836
2016-05-23T10:13:54.516Z,2688
2016-05-23T10:14:54.769Z,2772
2016-05-23T10:15:54.412Z,2432
2016-05-23T10:16:54.430Z,2524
2016-05-23T10:17:54.479Z,2472
2016-05-23T10:18:55.358Z,2352
2016-05-23T10:19:54.657Z,2200
2016-05-23T10:20:54.691Z,2112
2016-05-23T10:21:54.708Z,1748
2016-05-23T10:22:54.758Z,1556
2016-05-23T10:23:54.621Z,1492
2016-05-23T10:24:55.639Z,1344
2016-05-23T10:25:54.688Z,1556
2016-05-23T10:26:54.847Z,1396
2016-05-23T10:27:54.897Z,1376
2016-05-23T10:28:54.900Z,1544
2016-05-23T10:29:54.965Z,1344
2016-05-23T10:30:54.812Z,1420
2016-05-23T10:31:54.986Z,1492
2016-05-23T10:32:55.005Z,1392
2016-05-23T10:33:55.022Z,1496
2016-05-23T10:34:55.056Z,1596
2016-05-23T10:35:55.090Z,1788
2016-05-23T10:36:55.124Z,1792
2016-05-23T10:37:55.173Z,1592
2016-05-23T10:38:56.051Z,1756
2016-05-23T10:39:55.039Z,1896
2016-05-23T10:40:55.057Z,1996
2016-05-23T10:41:55.231Z,1800
2016-05-23T10:42:54.969Z,1712
2016-05-23T10:43:55.408Z,1836
2016-05-23T10:44:55.380Z,1764
2016-05-23T10:45:55.039Z,1524
2016-05-23T10:46:55.386Z,1548
2016-05-23T10:47:55.247Z,1436
2016-05-23T10:48:55.594Z,1432
2016-05-23T10:49:55.456Z,1628
2016-05-23T10:50:55.319Z,1868
2016-05-23T10:51:55.196Z,1428
2016-05-23T10:52:55.542Z,1516
2016-05-23T10:53:56.639Z,1624
2016-05-23T10:54:55.580Z,1868
2016-05-23T10:55:55.613Z,1972
2016-05-23T10:56:55.631Z,1808
2016-05-23T10:57:55.665Z,1776
2016-05-23T10:58:55.683Z,1764
2016-05-23T10:59:56.030Z,1884
2016-05-23T11:00:55.642Z,2012
2016-05-23T11:01:55.801Z,1732
2016-05-23T11:02:55.788Z,1612
2016-05-23T11:03:55.838Z,1868
2016-05-23T11:04:55.856Z,1880
2016-05-23T11:05:55.718Z,1876
2016-05-23T11:06:55.909Z,1920
2016-05-23T11:07:55.927Z,1824
2016-05-23T11:08:55.960Z,1884
2016-05-23T11:09:55.979Z,1916
2016-05-23T11:10:56.044Z,2064
2016-05-23T11:11:56.062Z,1800
2016-05-23T11:12:55.909Z,2348
2016-05-23T11:13:55.927Z,2908
2016-05-23T11:14:56.164Z,3024
2016-05-23T11:15:55.979Z,3244
2016-05-23T11:16:56.014Z,2536
2016-05-23T11:17:56.032Z,2196
2016-05-23T11:18:56.237Z,2020
2016-05-23T11:19:56.272Z,1972
2016-05-23T11:20:56.274Z,1708
2016-05-23T11:21:56.308Z,1424
2016-05-23T11:22:56.327Z,1768
2016-05-23T11:23:56.360Z,2096
2016-05-23T11:24:56.222Z,2348
2016-05-23T11:25:56.397Z,2308
2016-05-23T11:26:56.634Z,2172
2016-05-23T11:27:56.136Z,2580
2016-05-23T11:28:56.483Z,3240
2016-05-23T11:29:56.361Z,3520
2016-05-23T11:30:56.535Z,3360
2016-05-23T11:31:56.585Z,3340
2016-05-23T11:32:56.588Z,3396
2016-05-23T11:33:56.622Z,3452
2016-05-23T11:34:56.484Z,3076
2016-05-23T11:35:56.674Z,2856
2016-05-23T11:36:56.724Z,2964
2016-05-23T11:37:56.726Z,3260
2016-05-23T11:38:56.745Z,3304
2016-05-23T11:39:56.778Z,3476
2016-05-23T11:40:56.796Z,3492
2016-05-23T11:41:56.690Z,3380
2016-05-23T11:42:56.848Z,3512
2016-05-23T11:43:56.883Z,3812
2016-05-23T11:44:57.229Z,3540
2016-05-23T11:45:56.950Z,3264
2016-05-23T11:46:56.969Z,3316
2016-05-23T11:47:56.987Z,3296
2016-05-23T11:48:56.849Z,3488
2016-05-23T11:49:57.039Z,3324
2016-05-23T11:50:57.058Z,3400
2016-05-23T11:51:56.920Z,3544
2016-05-23T11:52:56.954Z,3532
2016-05-23T11:53:57.144Z,3280
2016-05-23T11:54:57.178Z,3336
2016-05-23T11:55:57.196Z,3436
2016-05-23T11:56:57.214Z,3140
2016-05-23T11:57:57.249Z,3160
2016-05-23T11:58:57.127Z,3500
2016-05-23T11:59:57.927Z,3320
2016-05-23T12:00:57.318Z,3328
2016-05-23T12:01:57.352Z,3672
2016-05-23T12:02:57.230Z,4060
2016-05-23T12:03:57.405Z,3648
2016-05-23T12:04:57.283Z,3644
2016-05-23T12:05:57.458Z,3664
2016-05-23T12:06:57.335Z,3580
2016-05-23T12:07:57.510Z,3864
2016-05-23T12:08:57.544Z,3788
2016-05-23T12:09:57.407Z,3608
2016-05-23T12:10:57.440Z,3472
2016-05-23T12:11:57.458Z,3392
2016-05-23T12:12:57.664Z,3488
2016-05-23T12:13:57.510Z,3496
2016-05-23T12:14:57.638Z,3092
2016-05-23T12:15:57.406Z,2308
2016-05-23T12:16:57.612Z,2536
2016-05-23T12:17:57.614Z,2708
2016-05-23T12:18:57.789Z,3168
2016-05-23T12:19:57.839Z,2992
2016-05-23T12:20:57.701Z,3144
2016-05-23T12:21:57.876Z,3128
2016-05-23T12:22:57.925Z,2476
2016-05-23T12:23:57.787Z,2296
2016-05-23T12:24:57.961Z,2452
2016-05-23T12:25:57.824Z,2640
2016-05-23T12:26:57.702Z,2680
2016-05-23T12:27:58.048Z,2392
2016-05-23T12:29:00.957Z,2280
2016-05-23T12:29:57.960Z,2020
2016-05-23T12:30:58.119Z,1864
2016-05-23T12:31:58.137Z,1768
2016-05-23T12:32:58.015Z,1316
2016-05-23T12:33:58.188Z,896
2016-05-23T12:34:58.129Z,928
2016-05-23T12:35:58.257Z,892
2016-05-23T12:36:58.307Z,920
2016-05-23T12:37:58.294Z,1048
2016-05-23T12:38:58.390Z,1096
2016-05-23T12:39:58.361Z,1212
2016-05-23T12:40:58.379Z,1472
2016-05-23T12:41:58.445Z,1236
2016-05-23T12:42:58.463Z,1032
2016-05-23T12:43:58.513Z,1000
2016-05-23T12:44:58.328Z,1500
2016-05-23T12:45:58.534Z,1820
2016-05-23T12:46:58.631Z,1792
2016-05-23T12:47:58.587Z,1524
2016-05-23T12:48:58.589Z,1088
2016-05-23T12:49:58.747Z,872
2016-05-23T12:50:58.689Z,704
2016-05-23T12:51:58.722Z,628
2016-05-23T12:52:58.709Z,596
2016-05-23T12:53:58.775Z,500
2016-05-23T12:54:58.777Z,672
2016-05-23T12:55:58.794Z,1120
2016-05-23T12:56:58.500Z,1640
2016-05-23T12:57:58.832Z,1964
2016-05-23T12:58:58.866Z,2132
2016-05-23T12:59:58.680Z,2096
2016-05-23T13:00:58.761Z,1928
2016-05-23T13:01:58.936Z,1772
2016-05-23T13:02:58.971Z,1572
2016-05-23T13:03:58.988Z,1284
2016-05-23T13:04:59.022Z,992
2016-05-23T13:05:59.041Z,764
2016-05-23T13:06:58.762Z,656
2016-05-23T13:07:59.109Z,692
2016-05-23T13:08:58.971Z,708
2016-05-23T13:09:59.161Z,692
2016-05-23T13:10:59.179Z,668
2016-05-23T13:11:59.041Z,748
2016-05-23T13:12:59.247Z,956
2016-05-23T13:13:59.562Z,1416
2016-05-23T13:14:58.970Z,1396
2016-05-23T13:15:59.177Z,1428
2016-05-23T13:16:59.336Z,1640
2016-05-23T13:17:59.370Z,1936
2016-05-23T13:18:59.389Z,2056
2016-05-23T13:19:59.250Z,2092
2016-05-23T13:20:59.440Z,2188
2016-05-23T13:21:59.459Z,2088
2016-05-23T13:22:59.492Z,1552
2016-05-23T13:23:59.527Z,1032
2016-05-23T13:24:59.561Z,808
2016-05-23T13:25:59.408Z,816
2016-05-23T13:26:59.597Z,912
2016-05-23T13:27:59.631Z,1032
2016-05-23T13:28:59.650Z,1172
2016-05-23T13:30:00.058Z,1336
2016-05-23T13:30:59.546Z,1544
2016-05-23T13:31:59.579Z,1672
2016-05-23T13:32:59.755Z,1656
2016-05-23T13:33:59.772Z,1604
2016-05-23T13:34:59.806Z,1676
2016-05-23T13:35:59.841Z,1832
2016-05-23T13:36:59.858Z,1944
2016-05-23T13:37:59.876Z,1972
2016-05-23T13:38:59.911Z,1940
2016-05-23T13:39:59.788Z,1920
2016-05-23T13:40:59.963Z,1720
2016-05-23T13:41:59.997Z,1560
2016-05-23T13:43:00.016Z,1948
2016-05-23T13:43:59.876Z,2388
2016-05-23T13:44:59.912Z,2288
2016-05-23T13:45:59.929Z,2116
2016-05-23T13:46:59.979Z,2204
2016-05-23T13:47:59.841Z,2268
2016-05-23T13:49:00.047Z,2004
2016-05-23T13:50:00.050Z,2060
2016-05-23T13:51:00.225Z,2344
2016-05-23T13:52:00.103Z,2296
2016-05-23T13:53:00.277Z,2144
2016-05-23T13:54:00.138Z,2072